createdAt,value
2022-12-15T00:02:37.060Z,8.97
2022-12-15T00:05:23.260Z,8.13
2022-12-15T00:08:09.149Z,8.27
2022-12-15T00:10:55.084Z,9.07
2022-12-15T00:13:41.379Z,9.10
2022-12-15T00:16:27.419Z,8.80
2022-12-15T00:19:14.699Z,8.93
2022-12-15T00:22:00.541Z,9.00
2022-12-15T00:24:49.756Z,9.40
2022-12-15T00:27:35.951Z,8.93
2022-12-15T00:30:22.072Z,8.73
2022-12-15T00:33:07.925Z,8.83
2022-12-15T00:35:55.189Z,9.07
2022-12-15T00:38:43.082Z,11.17
2022-12-15T00:41:11.397Z,10.37
2022-12-15T00:43:39.756Z,10.10
2022-12-15T00:46:26.101Z,10.10
2022-12-15T00:48:54.339Z,10.43
2022-12-15T00:51:37.801Z,11.00
2022-12-15T00:54:23.479Z,12.60
2022-12-15T00:57:09.497Z,11.17
2022-12-15T00:59:55.188Z,12.37
2022-12-15T01:02:41.197Z,13.33
2022-12-15T01:05:27.500Z,13.00
2022-12-15T01:08:14.591Z,13.27
2022-12-15T01:11:00.449Z,13.33
2022-12-15T01:13:45.955Z,11.80
2022-12-15T01:16:35.942Z,11.57
2022-12-15T01:19:21.788Z,12.70
2022-12-15T01:21:50.876Z,11.37
2022-12-15T01:24:20.377Z,12.20
2022-12-15T01:26:48.543Z,11.67
2022-12-15T01:29:16.890Z,12.80
2022-12-15T01:31:45.093Z,11.63
2022-12-15T01:34:19.862Z,11.73
2022-12-15T01:36:48.030Z,12.13
2022-12-15T01:39:16.130Z,12.07
2022-12-15T01:41:44.717Z,12.23
2022-12-15T01:44:20.221Z,12.00
2022-12-15T01:46:49.096Z,11.67
2022-12-15T01:49:18.235Z,12.07
2022-12-15T01:51:49.342Z,11.67
2022-12-15T01:54:18.779Z,12.70
2022-12-15T01:56:49.848Z,11.63
2022-12-15T01:59:20.524Z,12.17
2022-12-15T02:01:49.701Z,11.30
2022-12-15T02:04:19.801Z,11.80
2022-12-15T02:06:48.116Z,12.17
2022-12-15T02:09:16.995Z,12.07
2022-12-15T02:11:51.375Z,12.80
2022-12-15T02:14:24.524Z,11.87
2022-12-15T02:17:03.885Z,11.87
2022-12-15T02:19:41.832Z,11.87
2022-12-15T02:22:18.323Z,11.83
2022-12-15T02:24:59.651Z,11.53
2022-12-15T02:27:40.539Z,12.80
2022-12-15T02:30:27.244Z,11.27
2022-12-15T02:33:02.596Z,12.27
2022-12-15T02:35:33.084Z,12.43
2022-12-15T02:38:02.291Z,11.63
2022-12-15T02:40:30.443Z,12.47
2022-12-15T02:42:59.808Z,11.90
2022-12-15T02:45:32.125Z,12.67
2022-12-15T02:48:05.789Z,12.27
2022-12-15T02:50:42.996Z,12.67
2022-12-15T02:53:17.689Z,12.67
2022-12-15T02:55:50.538Z,12.43
2022-12-15T02:58:22.266Z,11.57
2022-12-15T03:00:54.690Z,12.10
2022-12-15T03:03:24.553Z,12.00
2022-12-15T03:05:54.647Z,11.70
2022-12-15T03:08:22.989Z,12.00
2022-12-15T03:10:51.415Z,12.40
2022-12-15T03:13:19.615Z,12.37
2022-12-15T03:15:47.762Z,11.53
2022-12-15T03:18:15.916Z,11.77
2022-12-15T03:20:45.445Z,11.93
2022-12-15T03:23:13.648Z,12.17
2022-12-15T03:25:41.838Z,11.63
2022-12-15T03:28:09.994Z,10.80
2022-12-15T03:30:38.111Z,10.63
2022-12-15T03:33:06.375Z,11.07
2022-12-15T03:35:34.642Z,9.80
2022-12-15T03:38:04.235Z,11.37
2022-12-15T03:40:32.358Z,10.80
2022-12-15T03:43:00.494Z,10.60
2022-12-15T03:45:29.806Z,10.77
2022-12-15T03:47:58.570Z,10.70
2022-12-15T03:50:27.583Z,10.87
2022-12-15T03:52:56.403Z,10.27
2022-12-15T03:55:26.255Z,10.53
2022-12-15T03:57:54.410Z,10.67
2022-12-15T04:00:23.008Z,10.07
2022-12-15T04:02:51.261Z,10.47
2022-12-15T04:05:20.460Z,10.40
2022-12-15T04:07:48.590Z,10.43
2022-12-15T04:10:16.835Z,10.07
2022-12-15T04:12:46.374Z,11.23
2022-12-15T04:15:14.540Z,10.13
2022-12-15T04:17:42.700Z,10.40
2022-12-15T04:20:10.461Z,11.00
2022-12-15T04:22:39.257Z,10.33
2022-12-15T04:25:26.569Z,9.93
2022-12-15T04:28:13.902Z,9.60
2022-12-15T04:31:01.743Z,8.83
2022-12-15T04:33:47.731Z,9.17
2022-12-15T04:36:33.852Z,8.53
2022-12-15T04:39:19.792Z,9.10
2022-12-15T04:42:05.842Z,9.30
2022-12-15T04:44:52.830Z,9.03
2022-12-15T04:47:38.555Z,9.20
2022-12-15T04:50:24.637Z,8.70
2022-12-15T04:53:11.078Z,8.43
2022-12-15T04:55:57.123Z,8.50
2022-12-15T04:58:42.823Z,8.23
2022-12-15T05:01:30.090Z,7.37
2022-12-15T05:04:16.044Z,8.47
2022-12-15T05:07:01.605Z,8.40
2022-12-15T05:09:47.259Z,8.27
2022-12-15T05:12:32.919Z,8.40
2022-12-15T05:15:18.946Z,7.80
2022-12-15T05:18:06.076Z,8.10
2022-12-15T05:20:51.878Z,8.03
2022-12-15T05:23:37.493Z,7.57
2022-12-15T05:26:23.433Z,7.63
2022-12-15T05:29:09.333Z,7.60
2022-12-15T05:31:52.917Z,7.40
2022-12-15T05:34:23.625Z,7.37
2022-12-15T05:36:52.012Z,7.93
2022-12-15T05:39:20.130Z,7.30
2022-12-15T05:41:48.418Z,7.80
2022-12-15T05:44:17.333Z,7.43
2022-12-15T05:46:45.961Z,7.80
2022-12-15T05:49:14.992Z,7.83
2022-12-15T05:51:45.147Z,8.07
2022-12-15T05:54:15.282Z,8.43
2022-12-15T05:56:43.466Z,8.43
2022-12-15T05:59:11.622Z,8.30
2022-12-15T06:01:39.922Z,8.50
2022-12-15T06:04:08.581Z,8.37
2022-12-15T06:06:36.767Z,8.27
2022-12-15T06:09:04.763Z,8.40
2022-12-15T06:11:34.280Z,8.27
2022-12-15T06:14:02.467Z,8.83
2022-12-15T06:16:30.645Z,8.53
2022-12-15T06:18:59.952Z,8.57
2022-12-15T06:21:29.792Z,8.17
2022-12-15T06:23:58.375Z,8.10
2022-12-15T06:26:27.339Z,8.50
2022-12-15T06:28:58.181Z,8.63
2022-12-15T06:31:26.744Z,8.50
2022-12-15T06:34:01.298Z,8.43
2022-12-15T06:36:30.841Z,8.97
2022-12-15T06:39:00.999Z,8.90
2022-12-15T06:41:30.219Z,8.77
2022-12-15T06:44:00.115Z,8.80
2022-12-15T06:46:29.038Z,9.43
2022-12-15T06:48:57.486Z,8.67
2022-12-15T06:51:26.109Z,7.80
2022-12-15T06:53:55.418Z,8.47
2022-12-15T06:56:30.732Z,8.70
2022-12-15T06:59:03.239Z,7.90
2022-12-15T07:01:31.851Z,8.27
2022-12-15T07:04:01.608Z,8.50
2022-12-15T07:06:34.206Z,8.73
2022-12-15T07:09:02.378Z,8.00
2022-12-15T07:11:30.746Z,8.37
2022-12-15T07:13:58.850Z,8.40
2022-12-15T07:16:28.481Z,8.97
2022-12-15T07:18:56.664Z,7.93
2022-12-15T07:21:24.799Z,7.37
2022-12-15T07:23:55.398Z,8.10
2022-12-15T07:26:24.738Z,7.53
2022-12-15T07:28:54.376Z,7.30
2022-12-15T07:31:23.247Z,7.17
2022-12-15T07:33:54.450Z,6.53
2022-12-15T07:36:22.767Z,7.90
2022-12-15T07:38:51.706Z,7.70
2022-12-15T07:41:20.882Z,7.73
2022-12-15T07:43:49.353Z,7.80
2022-12-15T07:46:17.722Z,7.60
2022-12-15T07:48:50.114Z,7.37
2022-12-15T07:51:21.352Z,7.83
2022-12-15T07:53:50.890Z,7.00
2022-12-15T07:56:22.813Z,7.77
2022-12-15T07:58:50.982Z,7.33
2022-12-15T08:01:19.410Z,7.70
2022-12-15T08:03:48.180Z,7.63
2022-12-15T08:06:16.797Z,6.97
2022-12-15T08:08:50.295Z,7.23
2022-12-15T08:11:20.011Z,7.30
2022-12-15T08:14:05.648Z,7.10
2022-12-15T08:16:36.586Z,6.97
2022-12-15T08:19:05.366Z,7.30
2022-12-15T08:21:33.578Z,8.70
2022-12-15T08:24:03.102Z,7.37
2022-12-15T08:26:31.698Z,7.87
2022-12-15T08:29:32.060Z,7.10
2022-12-15T08:31:52.085Z,7.23
2022-12-15T08:34:20.327Z,7.30
2022-12-15T08:36:48.494Z,7.47
2022-12-15T08:39:18.024Z,7.50
2022-12-15T08:41:46.173Z,6.73
2022-12-15T08:44:16.638Z,6.93
2022-12-15T08:46:44.768Z,7.43
2022-12-15T08:49:17.889Z,7.10
2022-12-15T08:51:50.220Z,7.90
2022-12-15T08:54:20.318Z,7.10
2022-12-15T08:56:48.545Z,7.10
2022-12-15T08:59:16.782Z,7.47
2022-12-15T09:01:45.213Z,7.53
2022-12-15T09:04:13.546Z,7.23
2022-12-15T09:06:41.725Z,7.10
2022-12-15T09:09:12.063Z,6.27
2022-12-15T09:11:41.586Z,6.50
2022-12-15T09:14:09.729Z,7.00
2022-12-15T09:16:38.006Z,6.43
2022-12-15T09:19:07.302Z,6.40
2022-12-15T09:21:36.171Z,6.87
2022-12-15T09:24:05.404Z,6.87
2022-12-15T09:26:35.300Z,6.80
2022-12-15T09:29:05.538Z,6.13
2022-12-15T09:31:35.783Z,7.00
2022-12-15T09:34:04.555Z,5.83
2022-12-15T09:36:33.689Z,5.90
2022-12-15T09:39:03.220Z,6.10
2022-12-15T09:41:32.383Z,5.83
2022-12-15T09:44:02.457Z,6.30
2022-12-15T09:46:49.823Z,6.00
2022-12-15T09:49:23.514Z,5.97
2022-12-15T09:51:55.138Z,6.77
2022-12-15T09:54:24.237Z,6.03
2022-12-15T09:56:55.883Z,6.33
2022-12-15T09:59:27.661Z,6.00
2022-12-15T10:02:02.717Z,5.87
2022-12-15T10:04:35.738Z,6.00
2022-12-15T10:07:09.170Z,5.80
2022-12-15T10:09:38.746Z,6.27
2022-12-15T10:12:08.815Z,5.97
2022-12-15T10:14:39.497Z,7.03
2022-12-15T10:17:17.071Z,6.00
2022-12-15T10:19:50.830Z,6.10
2022-12-15T10:22:22.015Z,6.63
2022-12-15T10:27:49.188Z,6.73
2022-12-15T10:30:17.737Z,6.37
2022-12-15T10:32:51.193Z,6.67
2022-12-15T10:35:22.298Z,6.60
2022-12-15T10:37:50.546Z,7.10
2022-12-15T10:40:20.401Z,7.33
2022-12-15T10:42:49.761Z,7.97
2022-12-15T10:45:33.316Z,8.40
2022-12-15T10:48:03.945Z,8.27
2022-12-15T10:50:32.118Z,7.67
2022-12-15T10:53:00.577Z,8.00
2022-12-15T10:55:33.079Z,7.87
2022-12-15T10:58:02.341Z,7.37
2022-12-15T11:00:31.678Z,7.17
2022-12-15T11:03:00.252Z,7.23
2022-12-15T11:05:30.018Z,6.30
2022-12-15T11:08:15.786Z,6.17
2022-12-15T11:11:09.794Z,6.47
2022-12-15T11:13:38.687Z,6.67
2022-12-15T11:16:13.208Z,5.73
2022-12-15T11:18:44.477Z,5.07
2022-12-15T11:21:16.115Z,4.70
2022-12-15T11:23:50.861Z,4.80
2022-12-15T11:26:25.610Z,4.93
2022-12-15T11:28:56.541Z,4.97
2022-12-15T11:31:27.215Z,4.17
2022-12-15T11:33:55.700Z,5.17
2022-12-15T11:36:36.746Z,4.57
2022-12-15T11:39:08.149Z,5.43
2022-12-15T11:41:38.994Z,4.60
2022-12-15T11:44:15.800Z,4.77
2022-12-15T11:46:48.569Z,4.80
2022-12-15T11:49:30.052Z,4.50
2022-12-15T11:52:05.889Z,4.10
2022-12-15T11:54:40.025Z,4.67
2022-12-15T11:57:19.380Z,4.70
2022-12-15T11:59:55.077Z,4.03
2022-12-15T12:02:34.297Z,4.37
2022-12-15T12:05:15.405Z,4.10
2022-12-15T12:07:46.399Z,3.20
2022-12-15T12:10:23.190Z,2.90
2022-12-15T12:12:54.232Z,2.60
2022-12-15T12:15:28.568Z,2.43
2022-12-15T12:17:59.964Z,1.97
2022-12-15T12:20:30.864Z,1.50
2022-12-15T12:23:03.402Z,1.57
2022-12-15T12:25:32.819Z,1.80
2022-12-15T12:28:03.612Z,1.60
2022-12-15T12:30:35.480Z,1.53
2022-12-15T12:33:07.583Z,1.37
2022-12-15T12:35:39.354Z,1.73
2022-12-15T12:38:09.548Z,1.40
2022-12-15T12:40:43.734Z,1.30
2022-12-15T12:43:14.439Z,1.30
2022-12-15T12:45:47.059Z,1.40
2022-12-15T12:48:23.841Z,1.50
2022-12-15T12:50:51.952Z,1.53
2022-12-15T12:53:33.424Z,1.70
2022-12-15T12:56:01.902Z,0.97
2022-12-15T12:58:34.322Z,1.23
2022-12-15T13:01:07.997Z,1.27
2022-12-15T13:03:40.151Z,1.30
2022-12-15T13:06:21.386Z,2.10
2022-12-15T13:08:52.296Z,1.20
2022-12-15T13:11:44.607Z,1.10
2022-12-15T13:14:21.027Z,1.37
2022-12-15T13:17:25.006Z,1.43
2022-12-15T13:20:03.746Z,1.00
2022-12-15T13:22:33.007Z,1.30
2022-12-15T13:25:02.513Z,1.30
2022-12-15T13:27:37.028Z,1.17
2022-12-15T13:30:16.028Z,1.23
2022-12-15T13:32:45.432Z,1.03
2022-12-15T13:35:24.357Z,1.00
2022-12-15T13:37:53.578Z,1.10
2022-12-15T13:40:33.267Z,1.63
2022-12-15T13:43:02.326Z,1.37
2022-12-15T13:45:36.566Z,1.13
2022-12-15T13:48:09.642Z,1.40
2022-12-15T13:50:42.535Z,1.20
2022-12-15T13:53:19.763Z,1.30
2022-12-15T13:55:55.462Z,1.00
2022-12-15T13:58:24.942Z,1.40
2022-12-15T14:00:54.606Z,1.20
2022-12-15T14:03:22.895Z,1.30
2022-12-15T14:05:52.585Z,1.40
2022-12-15T14:08:22.123Z,1.40
2022-12-15T14:10:51.247Z,1.40
2022-12-15T14:13:22.398Z,1.20
2022-12-15T14:15:52.399Z,1.10
2022-12-15T14:18:25.409Z,1.30
2022-12-15T14:20:53.978Z,1.30
2022-12-15T14:23:22.912Z,1.10
2022-12-15T14:25:54.630Z,1.00
2022-12-15T14:28:29.935Z,1.30
2022-12-15T14:30:59.722Z,0.83
2022-12-15T14:36:17.046Z,1.10
2022-12-15T14:38:46.791Z,1.00
2022-12-15T14:41:21.285Z,0.80
2022-12-15T14:44:36.785Z,0.80
2022-12-15T14:46:39.895Z,0.90
2022-12-15T14:49:10.969Z,0.93
2022-12-15T14:51:42.465Z,0.80
2022-12-15T14:54:28.640Z,1.00
2022-12-15T14:56:58.856Z,1.20
2022-12-15T14:59:32.462Z,1.00
2022-12-15T15:02:04.153Z,1.10
2022-12-15T15:03:14.380Z,0.80
2022-12-15T15:04:33.581Z,0.90
2022-12-15T15:07:02.886Z,1.00
2022-12-15T15:09:31.741Z,1.37
2022-12-15T15:12:02.473Z,1.20
2022-12-15T15:14:34.063Z,1.40
2022-12-15T15:17:05.199Z,1.10
2022-12-15T15:19:37.713Z,1.27
2022-12-15T15:22:08.848Z,1.20
2022-12-15T15:24:39.429Z,1.20
2022-12-15T15:27:25.707Z,1.70
2022-12-15T15:30:07.769Z,1.23
2022-12-15T15:32:50.454Z,1.80
2022-12-15T15:35:18.858Z,2.20
2022-12-15T15:37:47.071Z,2.33
2022-12-15T15:40:16.638Z,1.60
2022-12-15T15:42:46.317Z,1.30
2022-12-15T15:45:16.061Z,1.60
2022-12-15T15:47:47.552Z,1.50
2022-12-15T15:50:17.510Z,1.50
2022-12-15T15:52:45.875Z,1.90
2022-12-15T15:55:18.088Z,1.67
2022-12-15T15:57:46.262Z,1.80
2022-12-15T16:00:20.466Z,1.80
2022-12-15T16:02:48.809Z,1.70
2022-12-15T16:05:17.265Z,2.00
2022-12-15T16:07:46.563Z,1.83
2022-12-15T16:10:16.059Z,1.90
2022-12-15T16:12:47.132Z,1.90
2022-12-15T16:15:16.518Z,1.90
2022-12-15T16:17:46.078Z,2.07
2022-12-15T16:20:14.913Z,2.10
2022-12-15T16:22:43.701Z,1.70
2022-12-15T16:25:15.614Z,2.40
2022-12-15T16:27:43.786Z,2.00
2022-12-15T16:30:16.670Z,3.00
2022-12-15T16:32:46.226Z,2.70
2022-12-15T16:35:14.521Z,3.27
2022-12-15T16:37:46.556Z,3.00
2022-12-15T16:40:15.962Z,3.90
2022-12-15T16:42:44.290Z,3.37
2022-12-15T16:45:16.716Z,3.40
2022-12-15T16:47:46.576Z,3.63
2022-12-15T16:50:15.857Z,2.87
2022-12-15T16:52:44.701Z,3.33
2022-12-15T16:55:23.684Z,3.03
2022-12-15T16:57:52.285Z,3.40
2022-12-15T17:00:21.659Z,3.17
2022-12-15T17:02:51.374Z,3.67
2022-12-15T17:05:20.284Z,3.47
2022-12-15T17:07:51.103Z,3.07
2022-12-15T17:10:20.981Z,3.80
2022-12-15T17:12:49.477Z,3.27
2022-12-15T17:15:18.770Z,3.20
2022-12-15T17:17:46.907Z,3.60
2022-12-15T17:20:29.029Z,3.70
2022-12-15T17:22:59.312Z,4.00
2022-12-15T17:26:00.847Z,3.17
2022-12-15T17:28:18.229Z,3.87
2022-12-15T17:30:46.951Z,3.43
2022-12-15T17:33:19.139Z,3.83
2022-12-15T17:35:49.894Z,4.23
2022-12-15T17:38:20.690Z,4.93
2022-12-15T17:40:49.476Z,4.10
2022-12-15T17:43:18.461Z,3.10
2022-12-15T17:45:46.625Z,3.20
2022-12-15T17:48:15.144Z,3.20
2022-12-15T17:50:43.302Z,3.03
2022-12-15T17:53:13.641Z,2.60
2022-12-15T17:55:41.965Z,3.70
2022-12-15T17:58:17.561Z,3.53
2022-12-15T18:00:49.163Z,3.50
2022-12-15T18:03:18.184Z,3.03
2022-12-15T18:05:48.041Z,2.97
2022-12-15T18:08:18.615Z,3.70
2022-12-15T18:10:47.985Z,3.23
2022-12-15T18:13:20.117Z,3.20
2022-12-15T18:15:48.688Z,3.10
2022-12-15T18:18:17.327Z,3.40
2022-12-15T18:20:45.712Z,3.97
2022-12-15T18:23:15.661Z,3.60
2022-12-15T18:25:45.299Z,4.97
2022-12-15T18:28:19.779Z,7.03
2022-12-15T18:30:48.330Z,5.43
2022-12-15T18:33:16.840Z,4.80
2022-12-15T18:35:45.968Z,4.77
2022-12-15T18:38:18.294Z,3.90
2022-12-15T18:40:48.673Z,4.20
2022-12-15T18:43:18.049Z,3.77
2022-12-15T18:45:46.239Z,3.90
2022-12-15T18:48:16.750Z,3.83
2022-12-15T18:50:44.951Z,3.10
2022-12-15T18:53:16.696Z,3.67
2022-12-15T18:55:44.947Z,3.47
2022-12-15T18:58:20.997Z,3.53
2022-12-15T19:00:49.449Z,4.47
2022-12-15T19:03:17.812Z,3.73
2022-12-15T19:05:46.293Z,4.23
2022-12-15T19:08:16.910Z,4.27
2022-12-15T19:10:49.021Z,4.73
2022-12-15T19:13:19.510Z,4.63
2022-12-15T19:15:47.755Z,5.23
2022-12-15T19:18:34.295Z,4.63
2022-12-15T19:21:44.229Z,5.30
2022-12-15T19:24:13.874Z,5.10
2022-12-15T19:26:42.466Z,5.50
2022-12-15T19:29:15.944Z,5.60
2022-12-15T19:31:44.261Z,5.63
2022-12-15T19:34:12.469Z,5.30
2022-12-15T19:36:41.047Z,5.07
2022-12-15T19:39:10.050Z,5.37
2022-12-15T19:41:39.126Z,4.97
2022-12-15T19:44:10.641Z,5.57
2022-12-15T19:46:40.631Z,5.03
2022-12-15T19:49:08.977Z,5.17
2022-12-15T19:51:37.815Z,6.30
2022-12-15T19:54:06.481Z,7.00
2022-12-15T19:56:34.613Z,6.60
2022-12-15T19:59:02.914Z,6.67
2022-12-15T20:01:31.179Z,6.63
2022-12-15T20:04:00.728Z,6.90
2022-12-15T20:06:29.215Z,7.50
2022-12-15T20:08:57.841Z,6.80
2022-12-15T20:11:27.489Z,7.57
2022-12-15T20:13:56.145Z,6.90
2022-12-15T20:16:24.706Z,7.00
2022-12-15T20:18:54.619Z,6.90
2022-12-15T20:21:24.888Z,7.80
2022-12-15T20:23:54.815Z,7.00
2022-12-15T20:26:24.356Z,7.40
2022-12-15T20:28:52.963Z,6.67
2022-12-15T20:31:22.695Z,4.90
2022-12-15T20:33:51.187Z,5.00
2022-12-15T20:36:20.579Z,5.73
2022-12-15T20:38:50.180Z,5.00
2022-12-15T20:41:18.968Z,5.63
2022-12-15T20:43:47.610Z,5.37
2022-12-15T20:46:17.597Z,5.53
2022-12-15T20:48:46.773Z,5.73
2022-12-15T20:51:16.614Z,5.37
2022-12-15T20:53:44.835Z,5.60
2022-12-15T20:56:14.395Z,4.97
2022-12-15T20:58:43.016Z,4.93
2022-12-15T21:01:18.764Z,5.50
2022-12-15T21:03:47.564Z,5.17
2022-12-15T21:06:16.000Z,5.47
2022-12-15T21:08:44.473Z,5.40
2022-12-15T21:11:15.710Z,6.03
2022-12-15T21:13:44.576Z,5.47
2022-12-15T21:16:16.842Z,5.53
2022-12-15T21:19:18.654Z,5.37
2022-12-15T21:21:34.581Z,5.10
2022-12-15T21:24:04.425Z,5.57
2022-12-15T21:26:33.902Z,5.33
2022-12-15T21:29:03.602Z,4.93
2022-12-15T21:31:31.710Z,5.63
2022-12-15T21:33:59.855Z,5.30
2022-12-15T21:36:29.251Z,5.30
2022-12-15T21:38:57.498Z,5.07
2022-12-15T21:41:25.764Z,5.17
2022-12-15T21:43:55.251Z,5.10
2022-12-15T21:46:28.586Z,4.93
2022-12-15T21:49:14.871Z,5.10
2022-12-15T21:51:44.500Z,5.47
2022-12-15T21:54:16.540Z,5.67
2022-12-15T21:56:45.181Z,3.40
2022-12-15T21:59:15.811Z,3.90
2022-12-15T22:01:44.154Z,4.80
2022-12-15T22:04:17.473Z,3.90
2022-12-15T22:06:50.438Z,3.10
2022-12-15T22:09:19.338Z,3.40
2022-12-15T22:11:50.289Z,2.70
2022-12-15T22:14:24.183Z,2.37
2022-12-15T22:16:52.331Z,2.67
2022-12-15T22:19:20.440Z,2.80
2022-12-15T22:21:48.606Z,2.60
2022-12-15T22:24:19.750Z,3.53
2022-12-15T22:26:48.452Z,2.57
2022-12-15T22:29:18.825Z,2.67
2022-12-15T22:31:48.378Z,2.70
2022-12-15T22:34:17.605Z,2.70
2022-12-15T22:36:45.843Z,3.50
2022-12-15T22:39:15.035Z,3.00
2022-12-15T22:41:44.747Z,2.97
2022-12-15T22:44:17.374Z,2.73
2022-12-15T22:46:45.747Z,2.50
2022-12-15T22:49:17.426Z,2.50
2022-12-15T22:51:45.989Z,3.03
2022-12-15T22:54:18.974Z,2.93
2022-12-15T22:56:47.852Z,2.30
2022-12-15T22:59:27.374Z,2.40
2022-12-15T23:01:56.350Z,2.40
2022-12-15T23:04:26.057Z,2.10
2022-12-15T23:06:54.214Z,2.37
2022-12-15T23:09:23.162Z,2.30
2022-12-15T23:11:50.356Z,2.23
2022-12-15T23:14:19.180Z,2.10
2022-12-15T23:16:46.932Z,2.00
2022-12-15T23:19:23.822Z,2.00
2022-12-15T23:21:53.518Z,2.30
2022-12-15T23:24:22.212Z,1.87
2022-12-15T23:26:50.384Z,1.80
2022-12-15T23:29:18.605Z,2.20
2022-12-15T23:31:47.331Z,1.77
2022-12-15T23:34:15.566Z,2.13
2022-12-15T23:36:43.736Z,1.63
2022-12-15T23:39:13.263Z,1.27
2022-12-15T23:41:41.618Z,1.30
2022-12-15T23:44:09.756Z,1.50
2022-12-15T23:46:37.939Z,1.40
2022-12-15T23:49:06.721Z,1.40
2022-12-15T23:51:34.911Z,1.00
2022-12-15T23:54:03.052Z,1.67
2022-12-15T23:56:32.540Z,1.83
2022-12-15T23:59:01.203Z,1.40
